createdAt,value
2017-10-01T00:02:15.164Z,12.60
2017-10-01T00:04:42.687Z,12.60
2017-10-01T00:07:10.206Z,12.60
2017-10-01T00:09:38.495Z,12.70
2017-10-01T00:12:06.739Z,12.60
2017-10-01T00:14:34.511Z,12.70
2017-10-01T00:17:02.806Z,12.70
2017-10-01T00:19:30.371Z,12.70
2017-10-01T00:21:57.922Z,12.70
2017-10-01T00:24:25.434Z,12.70
2017-10-01T00:26:52.951Z,12.60
2017-10-01T00:29:20.494Z,12.60
2017-10-01T00:31:48.064Z,12.60
2017-10-01T00:34:15.692Z,12.60
2017-10-01T00:36:43.279Z,12.50
2017-10-01T00:39:10.783Z,12.50
2017-10-01T00:41:38.315Z,12.40
2017-10-01T00:44:05.855Z,12.30
2017-10-01T00:46:33.358Z,12.30
2017-10-01T00:49:00.871Z,12.30
2017-10-01T00:51:29.143Z,12.30
2017-10-01T00:53:56.718Z,12.30
2017-10-01T00:56:24.219Z,12.40
2017-10-01T00:58:51.850Z,12.40
2017-10-01T01:01:19.346Z,12.40
2017-10-01T01:03:46.938Z,12.40
2017-10-01T01:06:15.220Z,12.40
2017-10-01T01:08:42.782Z,12.40
2017-10-01T01:11:10.335Z,12.30
2017-10-01T01:13:37.850Z,12.30
2017-10-01T01:16:05.354Z,12.30
2017-10-01T01:18:32.911Z,12.30
2017-10-01T01:21:00.470Z,12.20
2017-10-01T01:23:28.798Z,12.20
2017-10-01T01:25:56.410Z,12.20
2017-10-01T01:28:23.923Z,12.30
2017-10-01T01:30:51.421Z,12.30
2017-10-01T01:33:18.939Z,12.40
2017-10-01T01:35:47.183Z,12.40
2017-10-01T01:38:14.763Z,12.40
2017-10-01T01:40:42.274Z,12.40
2017-10-01T01:43:09.831Z,12.40
2017-10-01T01:45:37.346Z,12.50
2017-10-01T01:48:04.846Z,12.50
2017-10-01T01:50:32.397Z,12.50
2017-10-01T01:53:01.539Z,12.60
2017-10-01T01:55:29.179Z,12.60
2017-10-01T01:57:56.723Z,12.70
2017-10-01T02:00:24.243Z,12.70
2017-10-01T02:02:51.751Z,12.70
2017-10-01T02:05:20.007Z,12.70
2017-10-01T02:07:47.512Z,12.70
2017-10-01T02:10:15.132Z,12.60
2017-10-01T02:12:42.695Z,12.70
2017-10-01T02:15:10.299Z,12.70
2017-10-01T02:17:37.903Z,12.70
2017-10-01T02:20:05.423Z,12.70
2017-10-01T02:22:33.027Z,12.70
2017-10-01T02:25:01.275Z,12.70
2017-10-01T02:27:29.539Z,12.70
2017-10-01T02:29:57.143Z,12.60
2017-10-01T02:32:24.643Z,12.70
2017-10-01T02:34:52.359Z,12.70
2017-10-01T02:37:19.864Z,12.70
2017-10-01T02:39:47.378Z,12.60
2017-10-01T02:42:15.384Z,12.60
2017-10-01T02:44:42.904Z,12.60
2017-10-01T02:47:10.464Z,12.60
2017-10-01T02:49:38.218Z,12.60
2017-10-01T02:52:05.831Z,12.60
2017-10-01T02:54:33.366Z,12.50
2017-10-01T02:57:00.902Z,12.50
2017-10-01T02:59:28.414Z,12.50
2017-10-01T03:01:55.934Z,12.50
2017-10-01T03:04:23.474Z,12.40
2017-10-01T03:06:51.036Z,12.40
2017-10-01T03:09:19.462Z,12.30
2017-10-01T03:11:47.031Z,12.30
2017-10-01T03:14:14.634Z,12.30
2017-10-01T03:16:42.154Z,12.20
2017-10-01T03:19:09.651Z,12.20
2017-10-01T03:21:37.163Z,12.10
2017-10-01T03:24:05.497Z,12.00
2017-10-01T03:26:33.019Z,11.90
2017-10-01T03:29:01.423Z,11.80
2017-10-01T03:31:28.939Z,11.80
2017-10-01T03:33:56.443Z,11.80
2017-10-01T03:36:23.958Z,11.70
2017-10-01T03:38:52.339Z,11.70
2017-10-01T03:41:19.841Z,11.60
2017-10-01T03:43:47.363Z,11.60
2017-10-01T03:46:15.664Z,11.50
2017-10-01T03:48:43.216Z,11.50
2017-10-01T03:51:10.723Z,11.60
2017-10-01T03:53:39.059Z,11.60
2017-10-01T03:56:06.620Z,11.60
2017-10-01T03:58:34.143Z,11.60
2017-10-01T04:01:01.734Z,11.60
2017-10-01T04:03:29.255Z,11.60
2017-10-01T04:05:56.851Z,11.60
2017-10-01T04:08:25.196Z,11.60
2017-10-01T04:10:52.699Z,11.60
2017-10-01T04:13:20.227Z,11.50
2017-10-01T04:15:48.585Z,11.50
2017-10-01T04:18:16.108Z,11.40
2017-10-01T04:20:43.619Z,11.40
2017-10-01T04:23:12.018Z,11.30
2017-10-01T04:25:39.527Z,11.30
2017-10-01T04:28:08.059Z,11.40
2017-10-01T04:30:35.574Z,11.30
2017-10-01T04:33:03.078Z,11.30
2017-10-01T04:35:30.603Z,11.30
2017-10-01T04:37:58.864Z,11.30
2017-10-01T04:40:26.390Z,11.30
2017-10-01T04:42:54.807Z,11.30
2017-10-01T04:45:22.403Z,11.40
2017-10-01T04:47:49.910Z,11.40
2017-10-01T04:50:17.431Z,11.40
2017-10-01T04:52:44.939Z,11.40
2017-10-01T04:55:12.543Z,11.40
2017-10-01T04:57:40.047Z,11.30
2017-10-01T05:00:07.759Z,11.30
2017-10-01T05:02:35.266Z,11.30
2017-10-01T05:05:02.875Z,11.40
2017-10-01T05:07:30.435Z,11.40
2017-10-01T05:09:57.959Z,11.30
2017-10-01T05:12:25.475Z,11.40
2017-10-01T05:14:53.010Z,11.30
2017-10-01T05:17:20.515Z,11.30
2017-10-01T05:19:49.055Z,11.30
2017-10-01T05:22:16.607Z,11.20
2017-10-01T05:24:44.167Z,11.20
2017-10-01T05:27:11.728Z,11.20
2017-10-01T05:29:39.283Z,11.20
2017-10-01T05:32:06.792Z,11.30
2017-10-01T05:34:34.503Z,11.30
2017-10-01T05:37:02.067Z,11.30
2017-10-01T05:39:30.382Z,11.30
2017-10-01T05:41:57.907Z,11.30
2017-10-01T05:44:25.419Z,11.30
2017-10-01T05:46:53.010Z,11.40
2017-10-01T05:49:20.514Z,11.40
2017-10-01T05:51:48.232Z,11.30
2017-10-01T05:54:15.795Z,11.20
2017-10-01T05:56:43.315Z,11.20
2017-10-01T05:59:10.814Z,11.10
2017-10-01T06:01:38.834Z,11.00
2017-10-01T06:04:06.340Z,11.00
2017-10-01T06:06:33.895Z,11.00
2017-10-01T06:09:01.407Z,11.00
2017-10-01T06:11:29.778Z,11.00
2017-10-01T06:13:57.290Z,11.00
2017-10-01T06:16:25.675Z,11.00
2017-10-01T06:18:53.206Z,11.00
2017-10-01T06:21:21.507Z,10.90
2017-10-01T06:23:49.067Z,10.90
2017-10-01T06:26:17.304Z,10.90
2017-10-01T06:28:44.819Z,10.80
2017-10-01T06:31:13.070Z,10.90
2017-10-01T06:33:40.591Z,10.90
2017-10-01T06:36:08.187Z,10.90
2017-10-01T06:38:36.471Z,11.00
2017-10-01T06:41:03.975Z,11.10
2017-10-01T06:43:31.495Z,11.20
2017-10-01T06:45:59.223Z,11.30
2017-10-01T06:48:27.512Z,11.20
2017-10-01T06:50:55.035Z,11.20
2017-10-01T06:53:23.351Z,11.20
2017-10-01T06:55:51.568Z,11.30
2017-10-01T06:58:19.817Z,11.40
2017-10-01T07:00:47.479Z,11.50
2017-10-01T07:03:15.231Z,11.60
2017-10-01T07:05:42.746Z,11.70
2017-10-01T07:08:10.248Z,11.80
2017-10-01T07:10:37.779Z,11.80
2017-10-01T07:13:06.054Z,11.90
2017-10-01T07:15:35.068Z,11.90
2017-10-01T07:18:02.567Z,11.80
2017-10-01T07:20:30.195Z,11.90
2017-10-01T07:22:57.822Z,12.00
2017-10-01T07:25:25.345Z,12.00
2017-10-01T07:27:52.871Z,12.10
2017-10-01T07:30:20.391Z,12.20
2017-10-01T07:32:47.978Z,12.30
2017-10-01T07:35:16.264Z,12.30
2017-10-01T07:37:43.855Z,12.30
2017-10-01T07:40:11.371Z,12.40
2017-10-01T07:42:39.959Z,12.40
2017-10-01T07:45:07.478Z,12.50
2017-10-01T07:47:35.182Z,12.50
2017-10-01T07:50:02.738Z,12.60
2017-10-01T07:52:30.415Z,12.60
2017-10-01T07:54:57.975Z,12.60
2017-10-01T07:57:25.494Z,12.60
2017-10-01T07:59:54.610Z,12.80
2017-10-01T08:02:22.227Z,12.80
2017-10-01T08:04:50.756Z,12.90
2017-10-01T08:07:18.270Z,13.00
2017-10-01T08:09:52.582Z,13.10
2017-10-01T08:12:20.101Z,13.10
2017-10-01T08:14:47.747Z,13.20
2017-10-01T08:17:15.306Z,13.30
2017-10-01T08:19:43.600Z,13.40
2017-10-01T08:22:11.110Z,13.40
2017-10-01T08:24:39.322Z,13.60
2017-10-01T08:27:06.875Z,13.70
2017-10-01T08:29:34.430Z,13.70
2017-10-01T08:32:01.963Z,13.70
2017-10-01T08:34:30.375Z,13.80
2017-10-01T08:36:59.034Z,13.80
2017-10-01T08:39:27.539Z,13.60
2017-10-01T08:41:55.142Z,13.60
2017-10-01T08:44:22.655Z,13.70
2017-10-01T08:46:50.919Z,13.70
2017-10-01T08:49:19.313Z,13.70
2017-10-01T08:51:46.811Z,13.60
2017-10-01T08:54:16.064Z,13.70
2017-10-01T08:56:43.631Z,13.70
2017-10-01T08:59:11.151Z,13.70
2017-10-01T09:01:39.639Z,13.80
2017-10-01T09:04:08.638Z,14.10
2017-10-01T09:06:37.850Z,14.30
2017-10-01T09:09:06.186Z,14.20
2017-10-01T09:11:33.790Z,14.40
2017-10-01T09:14:01.449Z,14.40
2017-10-01T09:16:29.040Z,14.40
2017-10-01T09:18:57.087Z,14.30
2017-10-01T09:21:24.642Z,14.20
2017-10-01T09:23:52.143Z,14.10
2017-10-01T09:26:19.659Z,14.00
2017-10-01T09:28:47.214Z,14.00
2017-10-01T09:31:14.742Z,14.00
2017-10-01T09:33:42.259Z,14.10
2017-10-01T09:36:09.777Z,14.30
2017-10-01T09:38:38.170Z,14.40
2017-10-01T09:41:05.722Z,14.40
2017-10-01T09:43:33.843Z,14.50
2017-10-01T09:46:01.365Z,14.60
2017-10-01T09:48:29.574Z,14.60
2017-10-01T09:50:57.199Z,14.70
2017-10-01T09:53:26.103Z,14.70
2017-10-01T09:55:53.638Z,14.70
2017-10-01T09:58:21.236Z,14.80
2017-10-01T10:00:49.490Z,15.00
2017-10-01T10:03:16.990Z,15.20
2017-10-01T10:05:44.599Z,15.30
2017-10-01T10:08:12.167Z,15.40
2017-10-01T10:10:39.715Z,15.50
2017-10-01T10:13:07.279Z,15.50
2017-10-01T10:15:34.777Z,15.50
2017-10-01T10:18:02.379Z,15.70
2017-10-01T10:20:30.646Z,16.00
2017-10-01T10:22:58.946Z,16.10
2017-10-01T10:25:26.446Z,16.00
2017-10-01T10:27:54.164Z,16.10
2017-10-01T10:30:22.442Z,16.30
2017-10-01T10:32:49.993Z,16.60
2017-10-01T10:35:17.486Z,17.20
2017-10-01T10:37:45.003Z,17.80
2017-10-01T10:40:13.274Z,19.10
2017-10-01T10:42:41.559Z,19.20
2017-10-01T10:45:09.180Z,19.10
2017-10-01T10:47:36.695Z,18.90
2017-10-01T10:50:04.196Z,18.60
2017-10-01T10:52:31.770Z,18.20
2017-10-01T10:55:00.114Z,17.70
2017-10-01T10:57:28.450Z,17.60
2017-10-01T10:59:56.007Z,17.50
2017-10-01T11:02:23.522Z,17.50
2017-10-01T11:04:51.014Z,17.20
2017-10-01T11:07:19.294Z,16.90
2017-10-01T11:09:47.554Z,16.90
2017-10-01T11:12:15.850Z,16.90
2017-10-01T11:14:43.355Z,16.80
2017-10-01T11:17:10.878Z,16.90
2017-10-01T11:19:38.383Z,16.90
2017-10-01T11:22:06.701Z,16.80
2017-10-01T11:24:34.265Z,16.80
2017-10-01T11:27:01.827Z,16.70
2017-10-01T11:29:29.379Z,16.80
2017-10-01T11:31:56.878Z,16.80
2017-10-01T11:34:24.487Z,16.80
2017-10-01T11:36:52.750Z,16.70
2017-10-01T11:39:20.258Z,16.70
2017-10-01T11:41:47.757Z,16.80
2017-10-01T11:44:15.346Z,16.80
2017-10-01T11:46:42.906Z,16.80
2017-10-01T11:49:11.183Z,16.70
2017-10-01T11:51:38.738Z,16.70
2017-10-01T11:54:07.119Z,16.80
2017-10-01T11:56:34.615Z,16.80
2017-10-01T11:59:02.142Z,16.70
2017-10-01T12:01:29.700Z,16.50
2017-10-01T12:03:57.198Z,16.40
2017-10-01T12:06:24.715Z,16.30
2017-10-01T12:08:52.626Z,16.20
2017-10-01T12:11:20.238Z,16.10
2017-10-01T12:13:47.739Z,16.20
2017-10-01T12:16:15.358Z,16.20
2017-10-01T12:18:42.859Z,16.20
2017-10-01T12:21:10.479Z,16.20
2017-10-01T12:23:38.136Z,16.20
2017-10-01T12:26:05.699Z,16.30
2017-10-01T12:28:33.254Z,16.30
2017-10-01T12:31:00.809Z,16.40
2017-10-01T12:33:29.087Z,16.50
2017-10-01T12:35:56.651Z,16.50
2017-10-01T12:38:24.207Z,16.60
2017-10-01T12:40:51.762Z,16.70
2017-10-01T12:43:19.979Z,16.80
2017-10-01T12:45:47.494Z,16.90
2017-10-01T12:48:14.990Z,16.90
2017-10-01T12:50:42.632Z,17.00
2017-10-01T12:53:10.126Z,17.00
2017-10-01T12:55:37.625Z,17.00
2017-10-01T12:58:22.804Z,17.30
2017-10-01T13:00:55.478Z,17.20
2017-10-01T13:03:23.630Z,17.20
2017-10-01T13:05:51.146Z,17.20
2017-10-01T13:08:18.666Z,17.10
2017-10-01T13:10:47.631Z,17.20
2017-10-01T13:13:16.654Z,17.20
2017-10-01T13:15:44.150Z,17.20
2017-10-01T13:18:11.663Z,17.20
2017-10-01T13:20:39.339Z,17.30
2017-10-01T13:23:06.857Z,17.20
2017-10-01T13:25:34.360Z,17.20
2017-10-01T13:28:04.590Z,17.20
2017-10-01T13:30:32.087Z,17.20
2017-10-01T13:33:00.379Z,17.20
2017-10-01T13:35:27.962Z,17.20
2017-10-01T13:37:55.486Z,17.30
2017-10-01T13:40:23.111Z,17.30
2017-10-01T13:42:50.645Z,17.30
2017-10-01T13:45:18.177Z,17.30
2017-10-01T13:47:46.497Z,17.30
2017-10-01T13:50:14.085Z,17.30
2017-10-01T13:52:41.595Z,17.40
2017-10-01T13:55:09.118Z,17.40
2017-10-01T13:57:36.706Z,17.40
2017-10-01T14:00:04.374Z,17.50
2017-10-01T14:02:31.888Z,17.50
2017-10-01T14:05:00.146Z,17.60
2017-10-01T14:07:27.663Z,17.60
2017-10-01T14:09:55.222Z,17.60
2017-10-01T14:12:23.207Z,17.70
2017-10-01T14:14:50.731Z,17.80
2017-10-01T14:17:19.851Z,18.10
2017-10-01T14:19:47.370Z,18.10
2017-10-01T14:22:15.491Z,18.10
2017-10-01T14:24:43.062Z,18.00
2017-10-01T14:27:10.559Z,17.90
2017-10-01T14:29:38.150Z,17.90
2017-10-01T14:32:06.915Z,17.90
2017-10-01T14:34:35.215Z,17.90
2017-10-01T14:37:02.804Z,17.90
2017-10-01T14:39:30.317Z,17.80
2017-10-01T14:41:58.579Z,17.80
2017-10-01T14:44:26.171Z,17.70
2017-10-01T14:46:53.742Z,17.80
2017-10-01T14:49:21.274Z,17.80
2017-10-01T14:51:49.543Z,17.80
2017-10-01T14:54:17.839Z,17.70
2017-10-01T14:56:45.355Z,17.70
2017-10-01T14:59:12.857Z,17.70
2017-10-01T15:01:40.414Z,17.60
2017-10-01T15:04:07.910Z,17.60
2017-10-01T15:06:35.436Z,17.50
2017-10-01T15:09:02.944Z,17.50
2017-10-01T15:11:30.542Z,17.60
2017-10-01T15:13:58.042Z,17.50
2017-10-01T15:16:25.562Z,17.50
2017-10-01T15:18:53.119Z,17.50
2017-10-01T15:21:20.686Z,17.50
2017-10-01T15:23:48.238Z,17.50
2017-10-01T15:26:15.830Z,17.50
2017-10-01T15:28:43.335Z,17.50
2017-10-01T15:31:11.622Z,17.50
2017-10-01T15:33:39.895Z,17.40
2017-10-01T15:36:08.185Z,17.40
2017-10-01T15:38:35.682Z,17.40
2017-10-01T15:41:03.203Z,17.40
2017-10-01T15:43:31.271Z,17.40
2017-10-01T15:45:58.767Z,17.40
2017-10-01T15:48:26.283Z,17.50
2017-10-01T15:50:53.795Z,17.50
2017-10-01T15:53:21.398Z,17.50
2017-10-01T15:55:49.683Z,17.40
2017-10-01T15:58:17.202Z,17.40
2017-10-01T16:00:44.799Z,17.30
2017-10-01T16:03:12.371Z,17.30
2017-10-01T16:05:39.917Z,17.10
2017-10-01T16:08:07.475Z,17.00
2017-10-01T16:10:35.030Z,17.00
2017-10-01T16:13:02.566Z,16.90
2017-10-01T16:15:30.152Z,16.80
2017-10-01T16:17:57.716Z,16.70
2017-10-01T16:20:25.266Z,16.60
2017-10-01T16:22:52.788Z,16.50
2017-10-01T16:25:20.301Z,16.50
2017-10-01T16:27:47.818Z,16.40
2017-10-01T16:30:16.082Z,16.30
2017-10-01T16:32:43.678Z,16.30
2017-10-01T16:35:11.207Z,16.30
2017-10-01T16:37:38.738Z,16.20
2017-10-01T16:40:06.239Z,16.20
2017-10-01T16:42:34.518Z,16.10
2017-10-01T16:45:02.783Z,16.00
2017-10-01T16:47:31.084Z,16.00
2017-10-01T16:49:59.172Z,15.90
2017-10-01T16:52:26.715Z,15.90
2017-10-01T16:54:54.527Z,15.80
2017-10-01T16:57:22.054Z,15.70
2017-10-01T16:59:49.569Z,15.50
2017-10-01T17:02:17.879Z,15.40
2017-10-01T17:04:45.406Z,15.40
2017-10-01T17:07:13.666Z,15.30
2017-10-01T17:09:41.187Z,15.30
2017-10-01T17:12:08.734Z,15.20
2017-10-01T17:14:36.254Z,15.20
2017-10-01T17:17:04.557Z,14.90
2017-10-01T17:19:32.081Z,14.90
2017-10-01T17:21:59.579Z,14.70
2017-10-01T17:24:27.491Z,14.60
2017-10-01T17:26:54.994Z,14.50
2017-10-01T17:29:22.511Z,14.50
2017-10-01T17:31:50.107Z,14.50
2017-10-01T17:34:17.671Z,14.40
2017-10-01T17:36:45.322Z,14.40
2017-10-01T17:39:13.606Z,14.20
2017-10-01T17:41:41.102Z,14.20
2017-10-01T17:44:08.722Z,14.10
2017-10-01T17:46:36.222Z,14.10
2017-10-01T17:49:03.719Z,13.90
2017-10-01T17:51:32.003Z,13.80
2017-10-01T17:54:00.262Z,13.70
2017-10-01T17:56:27.846Z,13.70
2017-10-01T17:58:55.411Z,13.60
2017-10-01T18:01:23.076Z,13.50
2017-10-01T18:03:50.581Z,13.60
2017-10-01T18:06:18.187Z,13.60
2017-10-01T18:08:45.699Z,13.50
2017-10-01T18:11:13.313Z,13.50
2017-10-01T18:13:41.701Z,13.40
2017-10-01T18:16:09.215Z,13.40
2017-10-01T18:18:36.723Z,13.40
2017-10-01T18:21:04.731Z,13.40
2017-10-01T18:23:32.772Z,13.40
2017-10-01T18:26:00.332Z,13.30
2017-10-01T18:28:27.861Z,13.20
2017-10-01T18:30:55.529Z,13.20
2017-10-01T18:33:23.044Z,13.20
2017-10-01T18:35:50.634Z,13.20
2017-10-01T18:38:18.150Z,13.10
2017-10-01T18:40:45.756Z,13.00
2017-10-01T18:43:14.045Z,12.90
2017-10-01T18:45:41.571Z,12.90
2017-10-01T18:48:09.871Z,12.80
2017-10-01T18:50:37.794Z,12.80
2017-10-01T18:53:05.318Z,12.70
2017-10-01T18:55:32.820Z,12.60
2017-10-01T18:58:00.343Z,12.70
2017-10-01T19:00:27.852Z,12.60
2017-10-01T19:02:56.142Z,12.70
2017-10-01T19:05:23.706Z,12.60
2017-10-01T19:07:51.230Z,12.70
2017-10-01T19:10:18.820Z,12.70
2017-10-01T19:12:46.339Z,12.70
2017-10-01T19:15:13.834Z,12.70
2017-10-01T19:17:41.389Z,12.70
2017-10-01T19:20:08.887Z,12.60
2017-10-01T19:22:36.445Z,12.60
2017-10-01T19:25:03.982Z,12.60
2017-10-01T19:27:31.543Z,12.50
2017-10-01T19:29:59.039Z,12.50
2017-10-01T19:32:26.549Z,12.60
2017-10-01T19:34:54.046Z,12.50
2017-10-01T19:37:21.574Z,12.50
2017-10-01T19:39:49.074Z,12.50
2017-10-01T19:42:16.678Z,12.50
2017-10-01T19:44:44.234Z,12.50
2017-10-01T19:47:11.736Z,12.50
2017-10-01T19:49:39.254Z,12.50
2017-10-01T19:52:06.806Z,12.50
2017-10-01T19:54:34.882Z,12.50
2017-10-01T19:57:02.556Z,12.40
2017-10-01T19:59:30.075Z,12.40
2017-10-01T20:01:58.347Z,12.40
2017-10-01T20:04:26.631Z,12.30
2017-10-01T20:06:54.906Z,12.30
2017-10-01T20:09:23.185Z,12.30
2017-10-01T20:11:51.494Z,12.20
2017-10-01T20:14:19.038Z,12.20
2017-10-01T20:16:46.539Z,12.20
2017-10-01T20:19:14.254Z,12.20
2017-10-01T20:21:41.757Z,12.10
2017-10-01T20:24:09.258Z,12.10
2017-10-01T20:26:37.551Z,12.10
2017-10-01T20:29:05.111Z,12.10
2017-10-01T20:31:32.675Z,12.10
2017-10-01T20:34:00.178Z,12.00
2017-10-01T20:36:27.704Z,12.00
2017-10-01T20:38:55.258Z,12.00
2017-10-01T20:41:22.775Z,11.90
2017-10-01T20:43:50.355Z,11.90
2017-10-01T20:46:17.879Z,11.90
2017-10-01T20:48:45.658Z,11.90
2017-10-01T20:51:13.938Z,11.90
2017-10-01T20:53:42.198Z,12.00
2017-10-01T20:56:09.710Z,12.00
2017-10-01T20:58:37.859Z,12.00
2017-10-01T21:01:05.423Z,12.00
2017-10-01T21:03:33.335Z,12.00
2017-10-01T21:06:00.839Z,12.00
2017-10-01T21:08:29.240Z,11.90
2017-10-01T21:10:56.740Z,11.90
2017-10-01T21:13:25.166Z,11.90
2017-10-01T21:15:52.722Z,11.90
2017-10-01T21:18:20.239Z,11.90
2017-10-01T21:20:47.747Z,11.90
2017-10-01T21:23:15.299Z,11.90
2017-10-01T21:25:42.799Z,11.90
2017-10-01T21:28:10.311Z,11.90
2017-10-01T21:30:37.887Z,11.90
2017-10-01T21:33:05.414Z,11.90
2017-10-01T21:35:33.687Z,11.90
2017-10-01T21:38:01.983Z,11.90
2017-10-01T21:40:29.490Z,11.90
2017-10-01T21:42:57.006Z,11.90
2017-10-01T21:45:24.559Z,11.90
2017-10-01T21:47:52.114Z,12.00
2017-10-01T21:50:19.670Z,11.90
2017-10-01T21:52:47.230Z,11.90
2017-10-01T21:55:14.795Z,11.90
2017-10-01T21:57:42.355Z,11.90
2017-10-01T22:00:09.862Z,11.90
2017-10-01T22:02:37.694Z,11.90
2017-10-01T22:05:05.234Z,11.90
2017-10-01T22:07:32.787Z,11.90
2017-10-01T22:10:01.067Z,12.00
2017-10-01T22:12:28.627Z,12.00
2017-10-01T22:14:56.143Z,12.00
2017-10-01T22:17:23.742Z,12.10
2017-10-01T22:19:51.307Z,12.10
2017-10-01T22:22:18.862Z,12.00
2017-10-01T22:24:46.370Z,12.10
2017-10-01T22:27:13.886Z,12.00
2017-10-01T22:29:41.403Z,12.10
2017-10-01T22:32:08.899Z,12.10
2017-10-01T22:34:36.416Z,12.20
2017-10-01T22:37:03.919Z,12.20
2017-10-01T22:39:31.470Z,12.20
2017-10-01T22:41:59.031Z,12.20
2017-10-01T22:44:26.555Z,12.30
2017-10-01T22:46:54.050Z,12.30
2017-10-01T22:49:21.551Z,12.30
2017-10-01T22:51:49.154Z,12.30
2017-10-01T22:54:17.434Z,12.30
2017-10-01T22:56:44.946Z,12.30
2017-10-01T22:59:12.549Z,12.30
2017-10-01T23:01:40.062Z,12.30
2017-10-01T23:04:07.671Z,12.40
2017-10-01T23:06:35.225Z,12.40
2017-10-01T23:09:03.502Z,12.40
2017-10-01T23:11:31.779Z,12.40
2017-10-01T23:13:59.337Z,12.40
2017-10-01T23:16:27.619Z,12.50
2017-10-01T23:18:55.174Z,12.50
2017-10-01T23:21:22.695Z,12.50
2017-10-01T23:23:50.194Z,12.50
2017-10-01T23:26:17.694Z,12.50
2017-10-01T23:28:45.202Z,12.50
2017-10-01T23:31:13.482Z,12.50
2017-10-01T23:33:40.998Z,12.50
2017-10-01T23:36:08.514Z,12.60
2017-10-01T23:38:36.028Z,12.50
2017-10-01T23:41:04.348Z,12.60
2017-10-01T23:43:31.890Z,12.50
2017-10-01T23:45:59.446Z,12.60
2017-10-01T23:48:27.012Z,12.50
2017-10-01T23:50:54.571Z,12.50
2017-10-01T23:53:23.770Z,12.60
2017-10-01T23:55:51.271Z,12.60
2017-10-01T23:58:18.791Z,12.60
